Time;durP1;ratioP1;P1;durP2;ratioP2;P2;SDS_P1;SDS_P2;PMS_P1;PMS_P2;Temp;Humidity;BMP_temperature;BMP_pressure;BME280_temperature;BME280_humidity;BME280_pressure;Samples;Min_cycle;Max_cycle;Signal;HPM_P1;HPM_P2
2021/06/01 00:01:43;;;;;;;;;;;14.60;83.50;;;;;;4971357;28;19914;-77
2021/06/01 00:04:10;;;;;;;;;;;14.60;83.90;;;;;;4970952;28;19964;-77
2021/06/01 00:06:36;;;;;;;;;;;14.60;83.90;;;;;;4970796;28;20889;-77
2021/06/01 00:09:09;;;;;;;;;;;14.50;84.60;;;;;;4972500;28;19909;-77
2021/06/01 00:11:35;;;;;;;;;;;14.50;84.40;;;;;;4970684;28;19956;-76
2021/06/01 00:14:00;;;;;;;;;;;14.40;84.00;;;;;;4970582;28;19958;-77
2021/06/01 00:16:27;;;;;;;;;;;14.30;83.50;;;;;;4970641;28;19925;-77
2021/06/01 00:18:52;;;;;;;;;;;14.40;83.30;;;;;;4953723;28;19976;-76
2021/06/01 00:21:18;;;;;;;;;;;14.30;83.50;;;;;;4970371;28;19918;-77
2021/06/01 00:23:44;;;;;;;;;;;14.20;84.50;;;;;;4972315;28;19913;-76
2021/06/01 00:26:11;;;;;;;;;;;14.20;84.80;;;;;;4970825;28;20501;-75
2021/06/01 00:28:37;;;;;;;;;;;14.10;84.90;;;;;;4969691;28;19933;-77
2021/06/01 00:31:02;;;;;;;;;;;14.10;85.00;;;;;;4970598;28;20252;-76
2021/06/01 00:33:28;;;;;;;;;;;14.00;84.70;;;;;;4974435;28;19906;-76
2021/06/01 00:35:54;;;;;;;;;;;14.10;84.70;;;;;;4975758;28;19910;-76
2021/06/01 00:38:19;;;;;;;;;;;13.90;84.80;;;;;;4974077;28;20239;-76
2021/06/01 00:40:45;;;;;;;;;;;13.90;84.80;;;;;;4974363;28;19920;-77
2021/06/01 00:43:10;;;;;;;;;;;13.90;85.00;;;;;;4974280;28;20016;-76
2021/06/01 00:45:36;;;;;;;;;;;13.80;85.10;;;;;;4974200;28;19918;-75
2021/06/01 00:48:02;;;;;;;;;;;13.80;85.50;;;;;;4975597;28;19930;-80
2021/06/01 00:50:28;;;;;;;;;;;14.00;86.10;;;;;;4973813;28;19997;-76
2021/06/01 00:52:54;;;;;;;;;;;14.00;86.10;;;;;;4973869;28;19910;-76
2021/06/01 00:55:19;;;;;;;;;;;14.20;86.10;;;;;;4972481;28;19984;-75
2021/06/01 00:57:45;;;;;;;;;;;14.20;86.00;;;;;;4973484;28;20084;-76
2021/06/01 01:02:44;;;;;;;;;;;14.10;86.90;;;;;;4974232;28;20000;-76
2021/06/01 01:05:12;;;;;;;;;;;14.20;87.40;;;;;;4973574;28;19993;-78
2021/06/01 01:07:46;;;;;;;;;;;14.00;88.20;;;;;;4973656;28;19988;-77
2021/06/01 01:10:13;;;;;;;;;;;13.90;89.10;;;;;;4973575;28;19917;-75
2021/06/01 01:12:46;;;;;;;;;;;13.80;89.70;;;;;;4973559;28;20004;-75
2021/06/01 01:15:12;;;;;;;;;;;13.70;90.00;;;;;;4975412;28;20005;-76
2021/06/01 01:17:43;;;;;;;;;;;13.70;90.20;;;;;;4973331;28;20008;-77
2021/06/01 01:20:30;;;;;;;;;;;13.60;90.10;;;;;;4973354;28;19929;-77
2021/06/01 01:22:56;;;;;;;;;;;13.60;90.40;;;;;;4972579;28;19910;-77
2021/06/01 01:25:41;;;;;;;;;;;13.70;90.40;;;;;;4973358;28;19918;-77
2021/06/01 01:28:14;;;;;;;;;;;13.50;90.60;;;;;;4972840;28;19945;-78
2021/06/01 01:30:43;;;;;;;;;;;13.40;91.00;;;;;;4973267;28;19910;-77
2021/06/01 01:33:08;;;;;;;;;;;13.40;91.20;;;;;;4974957;28;19906;-77
2021/06/01 01:35:34;;;;;;;;;;;13.40;91.40;;;;;;4985646;28;19909;-76
2021/06/01 01:38:00;;;;;;;;;;;13.40;91.30;;;;;;5011994;28;20330;-77
2021/06/01 01:40:27;;;;;;;;;;;13.30;91.30;;;;;;5011546;28;20244;-76
2021/06/01 01:43:00;;;;;;;;;;;13.30;91.50;;;;;;5011800;28;19909;-76
2021/06/01 01:45:29;;;;;;;;;;;13.20;91.50;;;;;;5012168;28;19909;-76
2021/06/01 01:50:41;;;;;;;;;;;13.10;91.60;;;;;;5012211;28;20309;-76
2021/06/01 01:53:10;;;;;;;;;;;13.10;91.70;;;;;;5011958;28;20373;-76
2021/06/01 01:55:36;;;;;;;;;;;13.00;91.80;;;;;;5011838;28;19937;-76
2021/06/01 01:58:01;;;;;;;;;;;13.00;91.90;;;;;;5011556;28;20230;-77
2021/06/01 02:00:27;;;;;;;;;;;13.00;92.20;;;;;;5011506;28;20390;-76
2021/06/01 02:02:52;;;;;;;;;;;13.00;92.20;;;;;;5013402;28;19902;-77
2021/06/01 02:05:18;;;;;;;;;;;13.00;92.20;;;;;;5011776;28;19909;-77
2021/06/01 02:07:44;;;;;;;;;;;12.90;92.30;;;;;;5011679;28;20255;-76
2021/06/01 02:10:10;;;;;;;;;;;12.90;92.40;;;;;;5011533;28;20259;-77
2021/06/01 02:12:35;;;;;;;;;;;12.90;92.50;;;;;;5011194;28;20220;-77
2021/06/01 02:15:01;;;;;;;;;;;12.80;92.60;;;;;;5013071;28;19960;-77
2021/06/01 02:17:26;;;;;;;;;;;12.80;92.50;;;;;;4994052;28;19936;-78
2021/06/01 02:19:52;;;;;;;;;;;12.80;92.60;;;;;;5010964;28;19925;-77
2021/06/01 02:22:28;;;;;;;;;;;12.70;92.90;;;;;;5011299;28;19959;-77
2021/06/01 02:25:01;;;;;;;;;;;12.60;92.90;;;;;;5011313;28;20004;-76
2021/06/01 02:27:29;;;;;;;;;;;12.50;93.20;;;;;;5011000;28;19909;-78
2021/06/01 02:30:00;;;;;;;;;;;12.40;93.40;;;;;;5012779;28;19955;-77
2021/06/01 02:32:29;;;;;;;;;;;12.40;93.50;;;;;;5010815;28;19920;-77
2021/06/01 02:34:57;;;;;;;;;;;12.40;93.50;;;;;;5011191;28;19932;-77
2021/06/01 02:37:23;;;;;;;;;;;12.40;93.50;;;;;;5011569;28;19940;-76
2021/06/01 02:39:48;;;;;;;;;;;12.40;93.40;;;;;;5011086;28;19909;-76
2021/06/01 02:42:14;;;;;;;;;;;12.30;93.50;;;;;;5012645;28;19905;-77
2021/06/01 02:44:40;;;;;;;;;;;12.30;93.80;;;;;;5010826;28;19909;-76
2021/06/01 02:47:06;;;;;;;;;;;12.30;93.80;;;;;;5011184;28;19910;-76
2021/06/01 02:49:33;;;;;;;;;;;12.30;93.90;;;;;;5010824;28;19909;-76
2021/06/01 02:51:58;;;;;;;;;;;12.30;94.10;;;;;;4993414;28;20434;-76
2021/06/01 02:54:24;;;;;;;;;;;12.30;94.20;;;;;;5010008;28;20012;-78
2021/06/01 02:56:50;;;;;;;;;;;12.20;94.30;;;;;;5012359;28;19955;-77
2021/06/01 02:59:17;;;;;;;;;;;12.20;94.40;;;;;;5010956;28;19913;-76
2021/06/01 03:01:42;;;;;;;;;;;12.20;94.60;;;;;;5010768;28;19913;-76
2021/06/01 03:04:08;;;;;;;;;;;12.20;94.70;;;;;;5010421;28;19972;-77
2021/06/01 03:06:34;;;;;;;;;;;12.10;94.90;;;;;;5010406;28;19909;-76
2021/06/01 03:09:00;;;;;;;;;;;12.20;94.80;;;;;;5012075;28;19902;-76
2021/06/01 03:11:25;;;;;;;;;;;12.20;94.90;;;;;;5010627;28;19921;-75
2021/06/01 03:13:51;;;;;;;;;;;12.20;95.00;;;;;;5009939;28;19913;-76
2021/06/01 03:16:17;;;;;;;;;;;12.20;95.00;;;;;;5010011;28;19917;-76
2021/06/01 03:18:43;;;;;;;;;;;12.20;95.10;;;;;;5010328;28;19945;-77
2021/06/01 03:21:09;;;;;;;;;;;12.20;95.20;;;;;;5011680;28;20024;-76
2021/06/01 03:23:34;;;;;;;;;;;12.20;95.20;;;;;;5010242;28;19909;-77
2021/06/01 03:26:02;;;;;;;;;;;12.30;95.20;;;;;;5010089;28;19913;-77
2021/06/01 03:28:28;;;;;;;;;;;12.30;95.20;;;;;;5010206;28;19921;-77
2021/06/01 03:30:53;;;;;;;;;;;12.20;95.40;;;;;;5010119;28;19914;-76
2021/06/01 03:33:19;;;;;;;;;;;12.10;95.60;;;;;;5010322;28;20386;-76
2021/06/01 03:35:45;;;;;;;;;;;12.10;95.70;;;;;;5011876;28;19912;-77
2021/06/01 03:38:11;;;;;;;;;;;12.10;95.90;;;;;;5009819;28;19913;-76
2021/06/01 03:40:37;;;;;;;;;;;12.10;95.90;;;;;;4992859;28;19909;-77
2021/06/01 03:43:02;;;;;;;;;;;12.10;95.80;;;;;;5009821;28;19921;-77
2021/06/01 03:45:28;;;;;;;;;;;12.20;95.80;;;;;;5009645;28;19916;-76
2021/06/01 03:47:54;;;;;;;;;;;12.20;96.00;;;;;;5011667;28;19911;-77
2021/06/01 03:50:19;;;;;;;;;;;12.20;95.90;;;;;;5009956;28;19932;-76
2021/06/01 03:52:45;;;;;;;;;;;12.30;95.90;;;;;;5009723;28;19989;-77
2021/06/01 03:55:11;;;;;;;;;;;12.30;95.90;;;;;;5009644;28;19952;-77
2021/06/01 03:57:36;;;;;;;;;;;12.30;95.80;;;;;;5010378;28;19921;-77
2021/06/01 04:00:03;;;;;;;;;;;12.30;95.80;;;;;;5011774;28;19909;-77
2021/06/01 04:02:29;;;;;;;;;;;12.30;95.90;;;;;;5009512;28;19909;-77
2021/06/01 04:04:55;;;;;;;;;;;12.30;96.00;;;;;;5009788;28;19945;-76
2021/06/01 04:07:20;;;;;;;;;;;12.30;96.00;;;;;;5013509;28;19910;-75
2021/06/01 04:09:46;;;;;;;;;;;12.30;96.10;;;;;;5013973;28;19910;-77
2021/06/01 04:12:11;;;;;;;;;;;12.20;96.50;;;;;;5015078;28;19967;-76
2021/06/01 04:14:37;;;;;;;;;;;12.30;96.30;;;;;;5013388;28;19936;-77
2021/06/01 04:17:04;;;;;;;;;;;12.30;96.20;;;;;;5013919;28;19956;-77
2021/06/01 04:19:29;;;;;;;;;;;12.50;96.00;;;;;;5014110;28;19917;-76
2021/06/01 04:21:55;;;;;;;;;;;12.40;96.20;;;;;;5013695;28;19940;-77
2021/06/01 04:24:21;;;;;;;;;;;12.30;96.40;;;;;;5013789;28;19996;-76
2021/06/01 04:26:46;;;;;;;;;;;12.30;96.50;;;;;;5014896;28;20335;-77
2021/06/01 04:29:12;;;;;;;;;;;12.30;96.50;;;;;;5013392;28;20370;-77
2021/06/01 04:31:40;;;;;;;;;;;12.40;96.60;;;;;;5013280;28;19913;-76
2021/06/01 04:34:05;;;;;;;;;;;12.50;96.50;;;;;;5013434;28;19920;-76
2021/06/01 04:36:31;;;;;;;;;;;12.60;96.60;;;;;;5013002;28;19909;-77
2021/06/01 04:38:56;;;;;;;;;;;12.60;96.50;;;;;;5015318;28;20270;-78
2021/06/01 04:41:22;;;;;;;;;;;12.60;96.60;;;;;;5013889;28;19917;-77
2021/06/01 04:43:48;;;;;;;;;;;12.70;96.60;;;;;;5014070;28;19913;-77
2021/06/01 04:46:14;;;;;;;;;;;12.70;96.60;;;;;;5013444;28;19952;-78
2021/06/01 04:48:39;;;;;;;;;;;12.80;96.80;;;;;;4996205;28;19949;-77
2021/06/01 04:51:05;;;;;;;;;;;13.00;96.20;;;;;;5014869;28;20314;-77
2021/06/01 04:53:30;;;;;;;;;;;13.10;96.30;;;;;;5012948;28;20001;-78
2021/06/01 04:55:56;;;;;;;;;;;13.10;96.30;;;;;;5012944;28;19967;-77
2021/06/01 04:58:21;;;;;;;;;;;13.20;96.40;;;;;;5013221;28;20413;-77
2021/06/01 05:00:47;;;;;;;;;;;13.20;96.40;;;;;;5012688;28;19913;-76
2021/06/01 05:03:12;;;;;;;;;;;13.30;96.40;;;;;;5014524;28;19910;-77
2021/06/01 05:05:38;;;;;;;;;;;13.40;96.40;;;;;;5012799;28;19909;-77
2021/06/01 05:08:04;;;;;;;;;;;13.40;96.30;;;;;;5012410;28;20343;-78
2021/06/01 05:10:29;;;;;;;;;;;13.40;96.30;;;;;;4995380;28;19929;-77
2021/06/01 05:12:54;;;;;;;;;;;13.50;96.40;;;;;;5012548;28;19909;-77
2021/06/01 05:15:20;;;;;;;;;;;13.60;96.30;;;;;;5012492;28;19916;-78
2021/06/01 05:17:46;;;;;;;;;;;13.90;95.90;;;;;;4995968;28;19945;-78
2021/06/01 05:20:12;;;;;;;;;;;14.10;95.70;;;;;;4994757;28;19921;-77
2021/06/01 05:22:37;;;;;;;;;;;14.20;95.70;;;;;;5012155;28;19913;-78
2021/06/01 05:25:03;;;;;;;;;;;14.20;95.80;;;;;;5012216;28;19909;-78
2021/06/01 05:27:29;;;;;;;;;;;14.30;95.80;;;;;;4995177;28;20354;-78
2021/06/01 05:29:58;;;;;;;;;;;14.50;95.60;;;;;;5014462;28;19901;-78
2021/06/01 05:34:59;;;;;;;;;;;14.90;95.20;;;;;;5013024;28;19925;-80
2021/06/01 05:37:33;;;;;;;;;;;15.00;95.00;;;;;;4994943;28;19913;-81
2021/06/01 05:39:58;;;;;;;;;;;15.00;95.00;;;;;;5014861;28;19909;-73
2021/06/01 05:42:24;;;;;;;;;;;15.20;95.00;;;;;;4993031;28;19915;-77
2021/06/01 05:44:50;;;;;;;;;;;15.30;95.00;;;;;;4998157;28;19915;-78
2021/06/01 05:47:16;;;;;;;;;;;15.60;94.70;;;;;;4996031;28;19909;-80
2021/06/01 05:49:42;;;;;;;;;;;15.90;94.10;;;;;;5012234;28;19913;-73
2021/06/01 05:52:08;;;;;;;;;;;16.10;94.20;;;;;;5008132;28;20557;-76
2021/06/01 05:54:33;;;;;;;;;;;16.50;93.90;;;;;;5012332;28;19916;-77
2021/06/01 05:57:01;;;;;;;;;;;16.70;93.50;;;;;;4996531;28;20343;-77
2021/06/01 05:59:26;;;;;;;;;;;17.10;92.90;;;;;;4989984;28;20036;-75
2021/06/01 06:01:54;;;;;;;;;;;17.30;92.20;;;;;;5012512;28;19992;-76
2021/06/01 06:04:20;;;;;;;;;;;17.40;91.90;;;;;;4994864;28;19909;-74
2021/06/01 06:06:46;;;;;;;;;;;17.60;91.70;;;;;;5008916;28;20004;-75
2021/06/01 06:09:12;;;;;;;;;;;17.70;91.40;;;;;;4995852;28;19940;-75
2021/06/01 06:11:37;;;;;;;;;;;17.80;91.30;;;;;;5009951;28;20149;-76
2021/06/01 06:14:04;;;;;;;;;;;18.00;91.20;;;;;;5011626;28;19967;-79
2021/06/01 06:16:38;;;;;;;;;;;17.90;90.70;;;;;;4992125;28;19924;-77
2021/06/01 06:19:04;;;;;;;;;;;17.90;90.10;;;;;;4993836;28;19909;-77
2021/06/01 06:21:30;;;;;;;;;;;17.90;88.60;;;;;;4994473;28;19918;-78
2021/06/01 06:23:56;;;;;;;;;;;17.90;87.80;;;;;;4997099;28;19905;-77
2021/06/01 06:26:21;;;;;;;;;;;17.90;86.70;;;;;;4974308;28;19932;-77
2021/06/01 06:28:47;;;;;;;;;;;17.90;86.40;;;;;;5009221;28;19971;-74
2021/06/01 06:31:12;;;;;;;;;;;18.00;87.30;;;;;;5010752;28;20334;-75
2021/06/01 06:33:38;;;;;;;;;;;18.20;86.90;;;;;;4993763;28;19917;-74
2021/06/01 06:36:04;;;;;;;;;;;18.50;86.80;;;;;;4995308;28;19906;-75
2021/06/01 06:38:30;;;;;;;;;;;18.60;86.10;;;;;;5011167;28;19909;-76
2021/06/01 06:43:24;;;;;;;;;;;18.60;83.70;;;;;;5010796;28;19925;-75
2021/06/01 06:45:49;;;;;;;;;;;18.60;83.10;;;;;;5010979;28;19909;-74
2021/06/01 06:48:15;;;;;;;;;;;18.70;83.30;;;;;;5012133;28;19905;-74
2021/06/01 06:50:40;;;;;;;;;;;18.80;80.50;;;;;;5010103;28;19909;-77
2021/06/01 06:53:06;;;;;;;;;;;18.90;81.00;;;;;;5010738;28;20423;-73
2021/06/01 06:55:32;;;;;;;;;;;19.10;80.70;;;;;;5010752;28;19923;-74
2021/06/01 06:57:58;;;;;;;;;;;19.30;79.60;;;;;;5010273;28;20630;-73
2021/06/01 07:00:24;;;;;;;;;;;19.40;80.20;;;;;;5010245;28;20005;-75
2021/06/01 07:02:50;;;;;;;;;;;19.60;78.80;;;;;;5011992;28;20324;-74
2021/06/01 07:05:17;;;;;;;;;;;19.70;77.70;;;;;;5010411;28;20448;-73
2021/06/01 07:07:43;;;;;;;;;;;19.80;76.40;;;;;;5010836;28;19913;-73
2021/06/01 07:10:13;;;;;;;;;;;19.70;76.30;;;;;;5009308;28;19920;-73
2021/06/01 07:12:40;;;;;;;;;;;19.80;76.50;;;;;;4993078;28;19909;-74
2021/06/01 07:15:10;;;;;;;;;;;19.90;76.30;;;;;;5012118;28;20346;-73
2021/06/01 07:17:38;;;;;;;;;;;20.00;76.30;;;;;;5010291;28;19914;-74
2021/06/01 07:20:05;;;;;;;;;;;20.00;75.40;;;;;;5010243;28;20359;-73
2021/06/01 07:22:33;;;;;;;;;;;20.10;73.00;;;;;;4993619;28;19916;-74
2021/06/01 07:24:59;;;;;;;;;;;20.10;71.30;;;;;;4993431;28;20319;-73
2021/06/01 07:27:25;;;;;;;;;;;20.20;70.80;;;;;;4993237;28;19905;-73
2021/06/01 07:29:52;;;;;;;;;;;20.30;70.40;;;;;;4994250;28;20327;-73
2021/06/01 07:32:17;;;;;;;;;;;20.60;70.50;;;;;;5009667;28;20409;-74
2021/06/01 07:34:43;;;;;;;;;;;20.90;68.70;;;;;;5010170;28;19968;-73
2021/06/01 07:37:08;;;;;;;;;;;21.10;68.60;;;;;;4992962;28;19924;-74
2021/06/01 07:39:34;;;;;;;;;;;21.20;67.20;;;;;;4992418;28;19909;-72
2021/06/01 07:41:59;;;;;;;;;;;21.20;66.90;;;;;;4999633;28;20347;-73
2021/06/01 07:44:25;;;;;;;;;;;21.30;66.80;;;;;;5016601;28;20087;-73
2021/06/01 07:46:51;;;;;;;;;;;21.30;66.10;;;;;;5016806;28;19909;-73
2021/06/01 07:49:17;;;;;;;;;;;21.60;66.10;;;;;;5016530;28;20294;-73
2021/06/01 07:51:42;;;;;;;;;;;21.70;66.10;;;;;;5015853;28;20343;-75
2021/06/01 07:54:08;;;;;;;;;;;21.90;64.90;;;;;;5018193;28;19909;-74
2021/06/01 07:56:34;;;;;;;;;;;22.10;63.30;;;;;;4998908;28;20500;-74
2021/06/01 07:59:00;;;;;;;;;;;22.50;63.70;;;;;;5015666;28;19910;-74
2021/06/01 08:01:26;;;;;;;;;;;23.00;62.00;;;;;;5016204;28;19925;-74
2021/06/01 08:03:51;;;;;;;;;;;23.30;60.60;;;;;;5016755;28;19909;-74
2021/06/01 08:06:17;;;;;;;;;;;23.50;59.90;;;;;;5016589;28;19909;-72
2021/06/01 08:08:43;;;;;;;;;;;23.60;59.30;;;;;;5000518;28;19987;-73
2021/06/01 08:11:08;;;;;;;;;;;23.80;59.20;;;;;;5016726;28;19940;-76
2021/06/01 08:13:34;;;;;;;;;;;24.20;58.60;;;;;;4999582;28;19921;-74
2021/06/01 08:16:00;;;;;;;;;;;24.60;58.20;;;;;;5016613;28;19967;-75
2021/06/01 08:18:27;;;;;;;;;;;25.10;57.20;;;;;;5016567;28;19976;-76
2021/06/01 08:23:25;;;;;;;;;;;27.20;52.60;;;;;;5016807;28;19920;-75
2021/06/01 08:25:50;;;;;;;;;;;27.30;49.10;;;;;;5015914;28;19980;-75
2021/06/01 08:28:16;;;;;;;;;;;27.70;49.60;;;;;;4999097;28;20414;-75
2021/06/01 08:30:41;;;;;;;;;;;28.30;47.30;;;;;;5016066;28;19913;-76
2021/06/01 08:33:07;;;;;;;;;;;28.70;45.30;;;;;;5018328;28;20408;-75
2021/06/01 08:35:33;;;;;;;;;;;28.50;45.30;;;;;;5016382;28;19910;-76
2021/06/01 08:37:58;;;;;;;;;;;29.40;44.90;;;;;;5016206;28;20014;-74
2021/06/01 08:40:24;;;;;;;;;;;29.90;42.70;;;;;;5015745;28;20001;-75
2021/06/01 08:42:51;;;;;;;;;;;30.30;42.00;;;;;;5015897;28;20459;-75
2021/06/01 08:45:16;;;;;;;;;;;30.10;42.70;;;;;;5015768;28;19910;-76
2021/06/01 08:47:42;;;;;;;;;;;30.40;41.90;;;;;;5017525;28;20352;-76
2021/06/01 08:50:09;;;;;;;;;;;30.70;41.30;;;;;;5015908;28;19913;-74
2021/06/01 08:52:35;;;;;;;;;;;31.50;39.50;;;;;;5013478;28;20423;-76
2021/06/01 08:55:02;;;;;;;;;;;30.90;40.30;;;;;;4994789;28;20008;-76
2021/06/01 08:57:28;;;;;;;;;;;31.30;39.90;;;;;;5012486;28;19993;-75
2021/06/01 08:59:53;;;;;;;;;;;31.20;38.40;;;;;;5014069;28;20308;-76
2021/06/01 09:02:22;;;;;;;;;;;30.50;38.20;;;;;;5012130;28;19910;-75
2021/06/01 09:04:56;;;;;;;;;;;30.00;38.40;;;;;;5012601;28;19921;-77
2021/06/01 09:13:12;;;;;;;;;;;29.50;39.40;;;;;;5012541;28;19921;-76
2021/06/01 09:21:08;;;;;;;;;;;28.70;41.00;;;;;;5012590;28;19932;-75
2021/06/01 09:23:47;;;;;;;;;;;28.60;41.30;;;;;;4994709;28;19937;-76
2021/06/01 09:26:32;;;;;;;;;;;28.20;41.20;;;;;;5011669;28;19959;-73
2021/06/01 09:28:58;;;;;;;;;;;28.20;42.10;;;;;;5012162;28;19914;-73
2021/06/01 09:31:24;;;;;;;;;;;27.80;42.10;;;;;;5011875;28;19917;-74
2021/06/01 09:33:50;;;;;;;;;;;28.00;41.60;;;;;;5012116;28;20231;-73
2021/06/01 09:36:20;;;;;;;;;;;28.00;41.80;;;;;;5013430;28;19905;-74
2021/06/01 09:38:46;;;;;;;;;;;28.20;42.00;;;;;;5012026;28;19910;-72
2021/06/01 09:41:16;;;;;;;;;;;28.00;41.90;;;;;;5011871;28;19917;-72
2021/06/01 09:44:11;;;;;;;;;;;27.70;42.20;;;;;;4994640;28;20256;-74
2021/06/01 09:46:37;;;;;;;;;;;27.70;43.40;;;;;;4981638;28;20385;-73
2021/06/01 09:49:12;;;;;;;;;;;27.60;43.70;;;;;;5011406;28;20008;-74
2021/06/01 09:51:38;;;;;;;;;;;27.60;43.60;;;;;;5011692;28;19948;-73
2021/06/01 09:54:23;;;;;;;;;;;27.40;42.80;;;;;;4995821;28;20327;-74
2021/06/01 09:56:48;;;;;;;;;;;26.90;42.70;;;;;;5011833;28;19939;-73
2021/06/01 09:59:14;;;;;;;;;;;26.80;44.50;;;;;;5011355;28;20323;-73
2021/06/01 10:01:39;;;;;;;;;;;26.40;45.00;;;;;;5011665;28;19917;-75
2021/06/01 10:04:05;;;;;;;;;;;26.50;45.20;;;;;;5011620;28;20292;-73
2021/06/01 10:06:34;;;;;;;;;;;26.70;44.80;;;;;;5011195;28;20526;-76
2021/06/01 10:09:09;;;;;;;;;;;26.80;45.40;;;;;;5012937;28;19901;-74
2021/06/01 10:11:34;;;;;;;;;;;27.10;44.90;;;;;;4993941;28;19909;-74
2021/06/01 10:14:00;;;;;;;;;;;27.30;43.90;;;;;;5011416;28;19909;-73
2021/06/01 10:16:28;;;;;;;;;;;27.20;44.20;;;;;;4993598;28;19968;-74
2021/06/01 10:18:53;;;;;;;;;;;27.10;44.10;;;;;;5011219;28;19921;-74
2021/06/01 10:21:19;;;;;;;;;;;27.00;44.20;;;;;;5011017;28;19917;-73
2021/06/01 10:23:49;;;;;;;;;;;27.20;45.10;;;;;;5012971;28;19963;-75
2021/06/01 10:26:15;;;;;;;;;;;27.20;45.20;;;;;;5010948;28;19944;-77
2021/06/01 10:28:46;;;;;;;;;;;27.30;45.40;;;;;;5010453;28;19956;-76
2021/06/01 10:31:16;;;;;;;;;;;27.30;44.40;;;;;;4993956;28;20594;-76
2021/06/01 10:33:47;;;;;;;;;;;27.40;44.80;;;;;;5010830;28;20022;-74
2021/06/01 10:50:04;;;;;;;;;;;26.70;47.40;;;;;;5011005;28;19916;-72
2021/06/01 10:52:30;;;;;;;;;;;27.00;47.10;;;;;;5010296;28;20224;-74
2021/06/01 10:54:58;;;;;;;;;;;27.10;45.60;;;;;;5010705;28;19909;-73
2021/06/01 10:57:24;;;;;;;;;;;27.10;45.50;;;;;;5010483;28;19959;-68
2021/06/01 10:59:51;;;;;;;;;;;27.00;44.80;;;;;;5012046;28;20088;-73
2021/06/01 11:02:17;;;;;;;;;;;27.00;44.00;;;;;;5009987;28;20310;-71
2021/06/01 11:04:58;;;;;;;;;;;26.90;43.10;;;;;;5010547;28;20382;-70
2021/06/01 11:07:38;;;;;;;;;;;26.70;42.10;;;;;;5010443;28;19909;-70
2021/06/01 11:10:03;;;;;;;;;;;26.60;42.60;;;;;;5010277;28;19919;-70
2021/06/01 11:12:29;;;;;;;;;;;26.80;43.70;;;;;;5010436;28;20000;-72
2021/06/01 11:14:57;;;;;;;;;;;26.70;44.50;;;;;;5011264;28;19901;-70
2021/06/01 11:17:32;;;;;;;;;;;26.90;45.10;;;;;;5009913;28;19972;-70
2021/06/01 11:20:10;;;;;;;;;;;27.00;44.40;;;;;;5009966;28;19925;-70
2021/06/01 11:22:42;;;;;;;;;;;27.20;44.90;;;;;;5009990;28;19921;-71
2021/06/01 11:33:17;;;;;;;;;;;26.60;43.10;;;;;;5011969;28;19929;-69
2021/06/01 11:35:45;;;;;;;;;;;26.80;43.90;;;;;;5010295;28;20417;-69
2021/06/01 11:43:15;;;;;;;;;;;27.00;44.30;;;;;;5010031;28;20013;-69
2021/06/01 11:51:15;;;;;;;;;;;26.40;45.00;;;;;;5011578;28;19915;-69
2021/06/01 11:53:57;;;;;;;;;;;26.70;44.70;;;;;;5009708;28;20347;-69
2021/06/01 12:12:52;;;;;;;;;;;26.60;44.20;;;;;;5009452;28;19972;-70
2021/06/01 12:20:42;;;;;;;;;;;26.20;44.40;;;;;;5009938;28;20055;-68
2021/06/01 12:23:26;;;;;;;;;;;26.10;44.80;;;;;;5009267;28;20327;-69
2021/06/01 12:26:03;;;;;;;;;;;26.10;45.20;;;;;;5009705;28;20315;-69
2021/06/01 12:30:55;;;;;;;;;;;25.90;45.50;;;;;;5011921;28;19913;-69
2021/06/01 12:31:29;;;;;;;;;;;25.90;45.70;;;;;;5012974;28;20281;-70
2021/06/01 12:33:59;;;;;;;;;;;26.20;45.50;;;;;;4996050;28;20015;-69
2021/06/01 12:42:24;;;;;;;;;;;26.00;45.00;;;;;;5014509;28;19908;-70
2021/06/01 12:44:51;;;;;;;;;;;26.20;45.30;;;;;;5013315;28;19979;-71
2021/06/01 13:05:31;;;;;;;;;;;25.70;45.10;;;;;;5012540;28;19915;-72
2021/06/01 13:07:30;;;;;;;;;;;26.10;46.30;;;;;;5012638;28;20318;-70
2021/06/01 13:13:40;;;;;;;;;;;26.30;46.30;;;;;;5012478;28;20410;-69
2021/06/01 13:21:32;;;;;;;;;;;26.30;46.50;;;;;;5012167;28;20362;-70
2021/06/01 13:32:16;;;;;;;;;;;26.10;47.10;;;;;;5012132;28;19909;-70
2021/06/01 13:40:50;;;;;;;;;;;26.00;46.40;;;;;;5012178;28;19909;-70
2021/06/01 13:46:13;;;;;;;;;;;25.90;46.30;;;;;;5012025;28;19940;-70
2021/06/01 13:56:23;;;;;;;;;;;26.30;46.10;;;;;;5011506;28;19917;-70
2021/06/01 14:20:56;;;;;;;;;;;26.30;43.50;;;;;;5010951;28;19952;-71
2021/06/01 15:49:31;;;;;;;;;;;25.90;46.10;;;;;;5009997;28;19917;-72
2021/06/01 16:13:46;;;;;;;;;;;25.60;47.20;;;;;;5013503;28;19917;-72
2021/06/01 16:21:30;;;;;;;;;;;25.50;47.20;;;;;;5013320;28;20405;-72
2021/06/01 16:32:15;;;;;;;;;;;25.30;47.30;;;;;;5013756;28;20420;-69
2021/06/01 17:05:02;;;;;;;;;;;25.90;46.30;;;;;;5012614;28;19924;-71
2021/06/01 17:12:48;;;;;;;;;;;25.90;46.70;;;;;;5011947;28;19920;-70
2021/06/01 17:15:15;;;;;;;;;;;25.80;48.50;;;;;;5013336;28;19912;-75
2021/06/01 17:17:44;;;;;;;;;;;25.80;48.60;;;;;;5012401;28;20221;-73
2021/06/01 17:30:59;;;;;;;;;;;25.50;48.20;;;;;;5012868;28;20976;-72
2021/06/01 17:36:10;;;;;;;;;;;25.50;48.20;;;;;;5013985;28;19916;-71
2021/06/01 17:38:36;;;;;;;;;;;25.50;47.70;;;;;;4994448;28;20339;-75
2021/06/01 17:41:04;;;;;;;;;;;25.40;47.70;;;;;;5011792;28;19921;-70
2021/06/01 17:43:34;;;;;;;;;;;25.40;47.70;;;;;;5012099;28;20331;-71
2021/06/01 17:46:01;;;;;;;;;;;25.40;47.70;;;;;;5011944;28;19979;-73
2021/06/01 17:48:38;;;;;;;;;;;25.30;47.80;;;;;;5011426;28;19996;-74
2021/06/01 17:51:07;;;;;;;;;;;25.30;47.80;;;;;;5013317;28;19964;-69
2021/06/01 17:53:43;;;;;;;;;;;25.20;48.20;;;;;;5012390;28;20010;-69
2021/06/01 17:56:11;;;;;;;;;;;25.10;48.90;;;;;;4979883;28;19936;-70
2021/06/01 17:58:38;;;;;;;;;;;25.00;48.60;;;;;;4992284;28;19921;-77
2021/06/01 18:01:04;;;;;;;;;;;24.90;48.40;;;;;;4975466;28;20220;-70
2021/06/01 18:03:30;;;;;;;;;;;24.90;48.20;;;;;;4992186;28;19921;-71
2021/06/01 18:05:56;;;;;;;;;;;24.80;48.20;;;;;;4993817;28;19902;-71
2021/06/01 18:08:37;;;;;;;;;;;24.70;48.40;;;;;;4975241;28;20004;-71
2021/06/01 18:11:45;;;;;;;;;;;24.70;48.10;;;;;;4991953;28;19920;-70
2021/06/01 19:24:44;;;;;;;10.05;5.78;;;23.20;52.10;;;;;;5026189;28;20108;-74
2021/06/01 19:51:59;;;;;;;5.88;3.53;;;22.70;53.40;;;;;;5013722;28;20144;-76
2021/06/01 19:54:27;;;;;;;5.75;3.42;;;22.60;53.60;;;;;;5014223;28;20014;-76
2021/06/01 19:56:54;;;;;;;6.78;3.85;;;22.60;53.70;;;;;;5015162;28;20049;-77
2021/06/01 19:59:20;;;;;;;4.95;3.15;;;22.60;53.70;;;;;;5013809;28;20053;-76
2021/06/01 20:01:46;;;;;;;6.53;4.10;;;22.50;53.70;;;;;;5013990;28;20529;-76
2021/06/01 20:04:12;;;;;;;5.85;3.78;;;22.50;54.20;;;;;;5013867;28;20034;-76
2021/06/01 20:06:41;;;;;;;6.25;3.70;;;22.50;54.30;;;;;;5012993;28;20056;-74
2021/06/01 20:09:07;;;;;;;7.60;3.88;;;22.40;54.60;;;;;;5014188;28;20057;-75
2021/06/01 20:11:36;;;;;;;8.45;4.00;;;22.40;54.70;;;;;;5028123;28;20104;-74
2021/06/01 20:14:02;;;;;;;6.07;3.85;;;22.40;55.00;;;;;;5012457;28;20514;-75
2021/06/01 20:16:29;;;;;;;8.30;3.65;;;22.40;55.00;;;;;;5012245;28;20500;-74
2021/06/01 20:19:00;;;;;;;9.82;3.55;;;22.40;55.10;;;;;;5011742;28;20038;-75
2021/06/01 20:21:26;;;;;;;14.18;4.07;;;22.40;55.30;;;;;;5012387;28;20018;-75
2021/06/01 20:23:59;;;;;;;8.95;4.20;;;22.30;55.20;;;;;;5013992;28;20022;-76
2021/06/01 20:26:28;;;;;;;5.55;3.78;;;22.30;55.50;;;;;;5011954;28;20371;-76
2021/06/01 20:29:02;;;;;;;6.30;3.40;;;22.30;55.50;;;;;;5012128;28;20038;-76
2021/06/01 20:31:32;;;;;;;5.38;3.42;;;22.20;55.30;;;;;;5007191;28;20045;-76
2021/06/01 20:33:59;;;;;;;9.80;3.15;;;22.20;55.00;;;;;;4994329;28;20035;-77
2021/06/01 20:36:25;;;;;;;9.25;3.20;;;22.20;54.10;;;;;;4993609;28;20030;-76
2021/06/01 20:38:51;;;;;;;7.30;2.90;;;22.20;53.80;;;;;;4995617;28;20051;-76
2021/06/01 20:41:17;;;;;;;3.90;2.58;;;22.10;53.10;;;;;;4994380;28;20452;-76
2021/06/01 20:43:45;;;;;;;4.40;2.50;;;22.10;52.50;;;;;;4993952;28;20379;-76
2021/06/01 20:46:10;;;;;;;3.58;2.88;;;22.00;51.90;;;;;;4993358;28;20049;-76
2021/06/01 20:48:37;;;;;;;7.18;2.33;;;21.90;51.40;;;;;;4994107;28;21900;-78
2021/06/01 20:51:03;;;;;;;3.45;2.35;;;21.90;50.90;;;;;;4995120;28;20100;-77
2021/06/01 20:53:29;;;;;;;5.63;2.50;;;21.90;50.40;;;;;;4994084;28;20030;-77
2021/06/01 20:55:56;;;;;;;2.42;2.00;;;21.80;49.60;;;;;;4993814;28;20039;-77
2021/06/01 20:58:34;;;;;;;3.20;1.95;;;21.80;49.30;;;;;;4994393;28;20061;-78
2021/06/01 21:01:00;;;;;;;4.85;2.90;;;21.70;48.60;;;;;;4992416;28;20121;-75
2021/06/01 21:03:28;;;;;;;3.22;2.10;;;21.60;48.10;;;;;;4992775;28;20022;-75
2021/06/01 21:05:54;;;;;;;4.65;2.25;;;21.60;48.10;;;;;;4994049;28;20030;-75
2021/06/01 21:08:20;;;;;;;2.00;1.50;;;21.50;48.30;;;;;;4991573;28;20038;-76
2021/06/01 21:10:46;;;;;;;4.25;1.90;;;21.50;48.20;;;;;;4992122;28;20034;-76
2021/06/01 21:13:14;;;;;;;4.20;1.85;;;21.40;47.90;;;;;;4992431;28;20034;-76